createdAt,value
2019-02-28T00:02:02.333Z,7.50
2019-02-28T00:04:32.992Z,8.70
2019-02-28T00:07:03.364Z,9.03
2019-02-28T00:09:33.291Z,20.53
2019-02-28T00:12:03.235Z,7.03
2019-02-28T00:14:33.284Z,7.07
2019-02-28T00:17:06.202Z,7.63
2019-02-28T00:19:35.499Z,7.73
2019-02-28T00:22:05.972Z,7.87
2019-02-28T00:24:36.129Z,7.90
2019-02-28T00:27:06.493Z,8.00
2019-02-28T00:29:36.626Z,7.03
2019-02-28T00:32:06.597Z,8.27
2019-02-28T00:34:39.318Z,8.67
2019-02-28T00:37:09.245Z,7.23
2019-02-28T00:39:39.441Z,7.93
2019-02-28T00:42:10.640Z,7.67
2019-02-28T00:44:42.506Z,7.97
2019-02-28T00:47:12.600Z,7.37
2019-02-28T00:49:42.759Z,8.17
2019-02-28T00:52:12.951Z,8.00
2019-02-28T00:54:44.379Z,7.17
2019-02-28T00:57:14.446Z,7.83
2019-02-28T00:59:44.486Z,8.80
2019-02-28T01:02:17.587Z,7.07
2019-02-28T01:04:47.438Z,8.30
2019-02-28T01:07:17.579Z,7.50
2019-02-28T01:09:48.134Z,7.13
2019-02-28T01:12:19.329Z,7.43
2019-02-28T01:14:49.967Z,7.63
2019-02-28T01:17:20.364Z,7.63
2019-02-28T01:19:50.278Z,7.90
2019-02-28T01:22:20.184Z,9.07
2019-02-28T01:24:50.440Z,8.23
2019-02-28T01:27:20.894Z,9.17
2019-02-28T01:29:51.720Z,11.90
2019-02-28T01:32:21.761Z,9.03
2019-02-28T01:34:51.655Z,9.37
2019-02-28T01:37:21.988Z,21.03
2019-02-28T01:39:51.999Z,8.00
2019-02-28T01:42:21.925Z,9.20
2019-02-28T01:44:51.828Z,8.37
2019-02-28T01:47:21.777Z,8.10
2019-02-28T01:49:51.996Z,8.73
2019-02-28T01:52:22.069Z,8.60
2019-02-28T01:54:52.062Z,8.53
2019-02-28T01:57:22.202Z,8.30
2019-02-28T01:59:52.897Z,8.40
2019-02-28T02:02:23.597Z,9.07
2019-02-28T02:04:53.776Z,8.70
2019-02-28T02:07:24.225Z,9.13
2019-02-28T02:09:54.374Z,9.27
2019-02-28T02:12:24.743Z,8.53
2019-02-28T02:14:54.685Z,8.80
2019-02-28T02:17:24.553Z,8.53
2019-02-28T02:19:54.819Z,8.87
2019-02-28T02:22:24.749Z,8.53
2019-02-28T02:24:54.953Z,9.80
2019-02-28T02:27:24.883Z,8.83
2019-02-28T02:29:54.783Z,9.17
2019-02-28T02:32:24.803Z,9.17
2019-02-28T02:34:54.727Z,9.10
2019-02-28T02:37:26.431Z,9.57
2019-02-28T02:39:56.958Z,10.20
2019-02-28T02:42:27.323Z,8.70
2019-02-28T02:44:57.240Z,10.23
2019-02-28T02:47:31.297Z,10.33
2019-02-28T02:49:59.132Z,10.70
2019-02-28T02:52:30.545Z,11.63
2019-02-28T02:55:00.646Z,9.70
2019-02-28T02:57:30.572Z,11.33
2019-02-28T03:00:00.792Z,11.30
2019-02-28T03:02:33.205Z,10.90
2019-02-28T03:05:02.383Z,10.33
2019-02-28T03:07:32.597Z,11.17
2019-02-28T03:10:02.590Z,10.47
2019-02-28T03:12:34.726Z,11.47
2019-02-28T03:15:05.173Z,10.20
2019-02-28T03:17:35.161Z,12.13
2019-02-28T03:20:07.339Z,12.17
2019-02-28T03:22:37.859Z,11.90
2019-02-28T03:25:08.683Z,11.97
2019-02-28T03:27:38.843Z,12.57
2019-02-28T03:30:12.339Z,12.27
2019-02-28T03:32:43.012Z,12.27
2019-02-28T03:35:13.562Z,13.43
2019-02-28T03:37:43.607Z,12.43
2019-02-28T03:40:14.164Z,13.03
2019-02-28T03:42:44.235Z,13.90
2019-02-28T03:45:14.868Z,13.20
2019-02-28T03:47:45.299Z,12.53
2019-02-28T03:50:15.640Z,13.53
2019-02-28T03:52:45.598Z,12.97
2019-02-28T03:55:15.666Z,12.30
2019-02-28T03:57:45.941Z,12.93
2019-02-28T04:00:17.936Z,13.03
2019-02-28T04:02:48.152Z,13.47
2019-02-28T04:05:18.114Z,13.13
2019-02-28T04:07:52.545Z,13.13
2019-02-28T04:10:22.031Z,14.93
2019-02-28T04:12:51.520Z,14.80
2019-02-28T04:15:21.580Z,14.47
2019-02-28T04:17:51.558Z,13.53
2019-02-28T04:20:21.451Z,13.00
2019-02-28T04:22:58.766Z,13.83
2019-02-28T04:25:24.488Z,14.37
2019-02-28T04:27:54.577Z,13.17
2019-02-28T04:30:24.869Z,15.20
2019-02-28T04:33:01.090Z,14.03
2019-02-28T04:35:27.359Z,15.47
2019-02-28T04:37:57.398Z,15.90
2019-02-28T04:40:27.715Z,15.60
2019-02-28T04:42:57.798Z,25.63
2019-02-28T04:45:27.722Z,15.87
2019-02-28T04:47:57.668Z,17.03
2019-02-28T04:50:31.213Z,18.13
2019-02-28T04:52:59.317Z,17.87
2019-02-28T04:55:30.611Z,17.20
2019-02-28T04:58:00.948Z,17.13
2019-02-28T05:00:30.910Z,19.00
2019-02-28T05:03:00.833Z,19.33
2019-02-28T05:05:30.738Z,18.07
2019-02-28T05:08:04.524Z,18.80
2019-02-28T05:10:32.318Z,19.17
2019-02-28T05:13:02.326Z,20.67
2019-02-28T05:15:37.345Z,19.60
2019-02-28T05:18:03.918Z,19.93
2019-02-28T05:20:33.820Z,19.73
2019-02-28T05:23:03.850Z,20.67
2019-02-28T05:25:34.008Z,21.43
2019-02-28T05:28:06.755Z,21.00
2019-02-28T05:30:35.695Z,22.50
2019-02-28T05:33:06.639Z,21.23
2019-02-28T05:35:37.759Z,23.17
2019-02-28T05:38:07.717Z,23.23
2019-02-28T05:40:41.397Z,23.17
2019-02-28T05:43:09.371Z,22.03
2019-02-28T05:45:39.325Z,20.60
2019-02-28T05:48:09.237Z,25.17
2019-02-28T05:50:39.165Z,24.53
2019-02-28T05:53:10.073Z,23.53
2019-02-28T05:55:40.016Z,24.27
2019-02-28T05:58:10.161Z,23.43
2019-02-28T06:00:40.134Z,24.03
2019-02-28T06:03:10.065Z,23.37
2019-02-28T06:05:40.079Z,23.90
2019-02-28T06:08:10.093Z,22.57
2019-02-28T06:10:40.033Z,23.60
2019-02-28T06:13:09.976Z,24.60
2019-02-28T06:15:40.064Z,25.07
2019-02-28T06:18:10.034Z,24.77
2019-02-28T06:20:40.087Z,28.43
2019-02-28T06:23:10.273Z,27.60
2019-02-28T06:25:40.283Z,27.87
2019-02-28T06:28:12.005Z,29.43
2019-02-28T06:30:42.757Z,28.83
2019-02-28T06:33:12.698Z,28.33
2019-02-28T06:35:42.862Z,28.10
2019-02-28T06:38:12.795Z,26.90
2019-02-28T06:40:42.985Z,29.07
2019-02-28T06:43:14.184Z,30.63
2019-02-28T06:45:44.228Z,29.63
2019-02-28T06:48:14.234Z,29.77
2019-02-28T06:50:44.907Z,28.47
2019-02-28T06:53:15.532Z,31.00
2019-02-28T06:55:48.522Z,30.50
2019-02-28T06:58:19.825Z,30.23
2019-02-28T07:00:50.572Z,31.93
2019-02-28T07:03:20.529Z,32.13
2019-02-28T07:05:50.518Z,33.40
2019-02-28T07:08:20.724Z,34.77
2019-02-28T07:10:52.227Z,30.93
2019-02-28T07:13:22.203Z,34.70
2019-02-28T07:15:52.480Z,34.90
2019-02-28T07:18:24.131Z,30.90
2019-02-28T07:20:54.355Z,33.27
2019-02-28T07:23:26.689Z,34.10
2019-02-28T07:25:56.331Z,35.73
2019-02-28T07:28:26.685Z,34.57
2019-02-28T07:30:57.107Z,35.33
2019-02-28T07:33:28.078Z,35.37
2019-02-28T07:35:58.635Z,39.27
2019-02-28T07:38:28.960Z,41.93
2019-02-28T07:40:59.787Z,37.03
2019-02-28T07:43:30.165Z,37.60
2019-02-28T07:46:00.450Z,36.83
2019-02-28T07:48:30.383Z,38.10
2019-02-28T07:51:00.448Z,39.47
2019-02-28T07:53:30.416Z,38.73
2019-02-28T07:56:03.768Z,39.33
2019-02-28T07:58:33.445Z,39.33
2019-02-28T08:01:03.644Z,35.53
2019-02-28T08:03:33.599Z,40.80
2019-02-28T08:06:04.923Z,39.23
2019-02-28T08:08:35.437Z,39.83
2019-02-28T08:11:05.668Z,39.27
2019-02-28T08:13:37.828Z,43.03
2019-02-28T08:16:07.461Z,41.13
2019-02-28T08:18:37.494Z,40.87
2019-02-28T08:21:08.768Z,44.33
2019-02-28T08:23:39.373Z,35.53
2019-02-28T08:26:09.326Z,42.57
2019-02-28T08:28:40.277Z,39.17
2019-02-28T08:31:10.468Z,40.90
2019-02-28T08:33:40.501Z,40.50
2019-02-28T08:36:12.591Z,43.27
2019-02-28T08:38:43.731Z,44.10
2019-02-28T08:41:13.789Z,42.87
2019-02-28T08:43:44.563Z,46.93
2019-02-28T08:46:15.922Z,41.57
2019-02-28T08:48:46.607Z,41.87
2019-02-28T08:51:16.844Z,45.33
2019-02-28T08:53:50.767Z,42.97
2019-02-28T08:56:18.478Z,44.83
2019-02-28T08:58:48.375Z,45.80
2019-02-28T09:01:18.414Z,48.93
2019-02-28T09:03:50.224Z,47.13
2019-02-28T09:06:20.532Z,49.83
2019-02-28T09:08:50.461Z,45.23
2019-02-28T09:11:21.084Z,47.90
2019-02-28T09:13:51.726Z,50.87
2019-02-28T09:16:22.053Z,45.80
2019-02-28T09:18:52.506Z,49.53
2019-02-28T09:21:22.744Z,49.93
2019-02-28T09:23:53.002Z,44.67
2019-02-28T09:26:22.942Z,43.33
2019-02-28T09:28:53.297Z,45.00
2019-02-28T09:31:23.265Z,46.50
2019-02-28T09:33:55.389Z,43.20
2019-02-28T09:36:24.993Z,42.20
2019-02-28T09:38:57.261Z,43.27
2019-02-28T09:41:27.047Z,45.60
2019-02-28T09:44:00.160Z,46.60
2019-02-28T09:46:28.670Z,47.50
2019-02-28T09:48:59.969Z,47.27
2019-02-28T09:51:32.007Z,50.90
2019-02-28T09:54:02.794Z,48.40
2019-02-28T09:56:32.936Z,43.93
2019-02-28T09:59:03.129Z,45.83
2019-02-28T10:01:33.914Z,44.83
2019-02-28T10:04:03.939Z,43.13
2019-02-28T10:06:34.092Z,41.60
2019-02-28T10:09:08.744Z,42.83
2019-02-28T10:11:37.579Z,44.07
2019-02-28T10:14:07.721Z,43.03
2019-02-28T10:16:37.657Z,40.37
2019-02-28T10:19:10.181Z,44.40
2019-02-28T10:21:39.743Z,39.63
2019-02-28T10:24:10.485Z,41.67
2019-02-28T10:26:40.487Z,41.73
2019-02-28T10:29:10.685Z,40.03
2019-02-28T10:31:41.105Z,40.70
2019-02-28T10:34:11.445Z,45.23
2019-02-28T10:36:44.376Z,42.63
2019-02-28T10:39:13.740Z,39.47
2019-02-28T10:41:43.873Z,44.93
2019-02-28T10:44:14.143Z,40.37
2019-02-28T10:46:44.619Z,40.30
2019-02-28T10:49:16.329Z,39.60
2019-02-28T10:51:49.577Z,39.93
2019-02-28T10:54:18.185Z,41.07
2019-02-28T10:56:48.511Z,46.73
2019-02-28T10:59:21.367Z,43.00
2019-02-28T11:01:50.390Z,41.77
2019-02-28T11:04:20.299Z,45.07
2019-02-28T11:06:50.265Z,40.47
2019-02-28T11:09:25.248Z,41.67
2019-02-28T11:11:53.232Z,39.10
2019-02-28T11:14:23.294Z,38.27
2019-02-28T11:16:59.105Z,40.57
2019-02-28T11:19:25.856Z,38.70
2019-02-28T11:21:56.010Z,41.17
2019-02-28T11:24:27.220Z,40.73
2019-02-28T11:26:57.492Z,39.27
2019-02-28T11:29:27.703Z,41.50
2019-02-28T11:31:59.050Z,42.97
2019-02-28T11:34:29.530Z,42.47
2019-02-28T11:36:59.489Z,44.83
2019-02-28T11:39:30.515Z,40.03
2019-02-28T11:42:01.271Z,43.67
2019-02-28T11:44:31.346Z,43.23
2019-02-28T11:47:01.353Z,42.67
2019-02-28T11:49:31.518Z,40.97
2019-02-28T11:52:01.595Z,46.20
2019-02-28T11:54:40.475Z,48.00
2019-02-28T11:57:10.420Z,43.10
2019-02-28T11:59:40.363Z,39.30
2019-02-28T12:02:10.438Z,44.83
2019-02-28T12:04:41.154Z,40.17
2019-02-28T12:07:11.565Z,39.53
2019-02-28T12:09:41.787Z,40.73
2019-02-28T12:12:12.008Z,42.07
2019-02-28T12:14:41.935Z,41.13
2019-02-28T12:17:11.862Z,37.73
2019-02-28T12:19:41.865Z,41.33
2019-02-28T12:22:12.728Z,37.63
2019-02-28T12:24:42.908Z,39.23
2019-02-28T12:27:12.919Z,40.90
2019-02-28T12:29:45.638Z,39.27
2019-02-28T12:32:14.814Z,41.17
2019-02-28T12:34:44.846Z,37.97
2019-02-28T12:37:15.012Z,41.00
2019-02-28T12:39:45.314Z,38.77
2019-02-28T12:42:15.413Z,41.43
2019-02-28T12:44:46.259Z,46.23
2019-02-28T12:47:16.375Z,37.87
2019-02-28T12:49:46.426Z,36.17
2019-02-28T12:52:16.382Z,42.63
2019-02-28T12:54:46.324Z,37.93
2019-02-28T12:57:19.254Z,38.87
2019-02-28T12:59:48.813Z,37.47
2019-02-28T13:02:19.140Z,40.17
2019-02-28T13:04:49.145Z,36.57
2019-02-28T13:07:19.176Z,41.03
2019-02-28T13:09:51.472Z,36.93
2019-02-28T13:12:21.080Z,41.73
2019-02-28T13:14:51.102Z,38.40
2019-02-28T13:17:21.248Z,40.83
2019-02-28T13:19:53.240Z,39.27
2019-02-28T13:22:24.235Z,39.50
2019-02-28T13:24:54.666Z,41.37
2019-02-28T13:27:24.636Z,37.73
2019-02-28T13:29:54.645Z,38.53
2019-02-28T13:32:24.665Z,44.07
2019-02-28T13:34:54.877Z,39.30
2019-02-28T13:37:24.921Z,41.73
2019-02-28T13:39:55.031Z,39.17
2019-02-28T13:42:25.179Z,37.30
2019-02-28T13:44:55.146Z,37.23
2019-02-28T13:47:25.411Z,34.63
2019-02-28T13:49:55.348Z,39.23
2019-02-28T13:52:25.294Z,36.83
2019-02-28T13:54:55.476Z,38.17
2019-02-28T13:57:25.491Z,38.97
2019-02-28T13:59:55.543Z,40.40
2019-02-28T14:02:26.256Z,39.53
2019-02-28T14:04:58.760Z,38.97
2019-02-28T14:07:30.217Z,42.80
2019-02-28T14:10:01.278Z,39.93
2019-02-28T14:12:31.599Z,43.77
2019-02-28T14:15:01.607Z,38.40
2019-02-28T14:17:32.542Z,41.83
2019-02-28T14:20:03.589Z,40.77
2019-02-28T14:22:33.629Z,41.60
2019-02-28T14:25:06.168Z,37.77
2019-02-28T14:27:35.462Z,39.30
2019-02-28T14:30:07.984Z,41.63
2019-02-28T14:32:38.738Z,40.50
2019-02-28T14:35:10.036Z,38.90
2019-02-28T14:37:40.166Z,41.23
2019-02-28T14:40:14.646Z,39.03
2019-02-28T14:42:46.026Z,40.40
2019-02-28T14:45:17.076Z,44.20
2019-02-28T14:47:56.230Z,42.70
2019-02-28T14:50:20.000Z,38.50
2019-02-28T14:52:51.547Z,45.00
2019-02-28T14:55:22.810Z,41.10
2019-02-28T14:57:55.334Z,42.00
2019-02-28T15:00:30.066Z,40.43
2019-02-28T15:03:02.977Z,39.00
2019-02-28T15:05:32.583Z,40.77
2019-02-28T15:08:03.268Z,39.73
2019-02-28T15:10:34.435Z,42.50
2019-02-28T15:13:05.534Z,40.33
2019-02-28T15:15:36.544Z,37.10
2019-02-28T15:18:06.986Z,40.87
2019-02-28T15:20:37.239Z,39.07
2019-02-28T15:23:07.218Z,39.57
2019-02-28T15:25:37.559Z,44.03
2019-02-28T15:28:07.494Z,41.40
2019-02-28T15:30:37.599Z,39.93
2019-02-28T15:33:07.707Z,41.70
2019-02-28T15:35:37.727Z,43.93
2019-02-28T15:38:09.397Z,41.87
2019-02-28T15:40:40.502Z,40.93
2019-02-28T15:43:10.727Z,41.87
2019-02-28T15:45:40.909Z,42.37
2019-02-28T15:48:10.862Z,40.20
2019-02-28T15:50:41.141Z,41.63
2019-02-28T15:53:15.019Z,45.53
2019-02-28T15:55:43.177Z,43.63
2019-02-28T15:58:13.284Z,44.07
2019-02-28T16:00:43.412Z,47.53
2019-02-28T16:03:16.221Z,44.90
2019-02-28T16:05:45.129Z,42.53
2019-02-28T16:08:15.493Z,46.87
2019-02-28T16:10:52.892Z,43.63
2019-02-28T16:13:17.298Z,47.00
2019-02-28T16:15:49.966Z,46.07
2019-02-28T16:18:22.242Z,48.40
2019-02-28T16:20:55.499Z,54.80
2019-02-28T16:23:27.576Z,58.10
2019-02-28T16:25:57.324Z,54.80
2019-02-28T16:28:27.433Z,60.00
2019-02-28T16:30:57.519Z,56.70
2019-02-28T16:33:27.650Z,54.23
2019-02-28T16:35:57.794Z,56.83
2019-02-28T16:38:27.762Z,57.53
2019-02-28T16:41:00.780Z,59.63
2019-02-28T16:43:29.754Z,55.90
2019-02-28T16:45:59.848Z,61.67
2019-02-28T16:48:30.249Z,59.63
2019-02-28T16:51:00.205Z,61.50
2019-02-28T16:53:30.167Z,59.20
2019-02-28T16:56:02.581Z,53.83
2019-02-28T16:58:32.540Z,53.77
2019-02-28T17:01:02.737Z,52.30
2019-02-28T17:03:32.878Z,53.63
2019-02-28T17:06:03.065Z,48.23
2019-02-28T17:08:37.114Z,52.87
2019-02-28T17:11:07.074Z,57.20
2019-02-28T17:13:47.713Z,53.50
2019-02-28T17:16:28.272Z,58.30
2019-02-28T17:18:58.253Z,57.93
2019-02-28T17:21:28.277Z,59.17
2019-02-28T17:23:58.293Z,48.93
2019-02-28T17:26:46.369Z,53.37
2019-02-28T17:29:26.097Z,50.73
2019-02-28T17:31:56.044Z,54.37
2019-02-28T17:34:25.955Z,46.97
2019-02-28T17:36:56.090Z,55.17
2019-02-28T17:39:26.136Z,53.13
2019-02-28T17:41:56.042Z,54.40
2019-02-28T17:44:42.113Z,49.10
2019-02-28T17:47:50.685Z,44.67
2019-02-28T17:50:42.736Z,46.10
2019-02-28T17:53:45.674Z,47.40
2019-02-28T17:57:06.272Z,51.73
2019-02-28T18:00:12.884Z,45.97
2019-02-28T18:03:15.737Z,44.70
2019-02-28T18:06:59.728Z,46.10
2019-02-28T18:09:48.180Z,46.40
2019-02-28T18:13:10.292Z,54.93
2019-02-28T18:16:33.103Z,45.63
2019-02-28T18:19:54.358Z,45.17
2019-02-28T18:22:48.690Z,50.23
2019-02-28T18:25:44.688Z,46.53
2019-02-28T18:28:39.349Z,46.33
2019-02-28T18:31:12.166Z,49.40
2019-02-28T18:33:48.670Z,51.67
2019-02-28T18:36:21.465Z,46.87
2019-02-28T18:38:51.447Z,48.20
2019-02-28T18:41:21.522Z,48.93
2019-02-28T18:43:51.553Z,52.17
2019-02-28T18:46:21.995Z,50.77
2019-02-28T18:48:54.417Z,54.50
2019-02-28T18:51:24.243Z,49.03
2019-02-28T18:53:54.201Z,48.87
2019-02-28T18:56:24.157Z,56.33
2019-02-28T18:58:54.087Z,51.17
2019-02-28T19:01:24.370Z,51.73
2019-02-28T19:03:54.317Z,52.17
2019-02-28T19:06:24.336Z,53.53
2019-02-28T19:08:54.326Z,53.00
2019-02-28T19:11:24.510Z,55.17
2019-02-28T19:13:54.522Z,51.37
2019-02-28T19:16:24.503Z,55.50
2019-02-28T19:18:54.410Z,50.40
2019-02-28T19:21:24.321Z,51.37
2019-02-28T19:23:54.295Z,53.30
2019-02-28T19:26:24.632Z,53.70
2019-02-28T19:28:54.626Z,54.70
2019-02-28T19:31:24.657Z,52.13
2019-02-28T19:33:54.691Z,53.07
2019-02-28T19:36:24.701Z,54.87
2019-02-28T19:38:54.750Z,52.93
2019-02-28T19:41:24.722Z,52.77
2019-02-28T19:43:54.777Z,54.20
2019-02-28T19:46:24.901Z,60.70
2019-02-28T19:48:54.866Z,61.97
2019-02-28T19:51:25.042Z,53.87
2019-02-28T19:53:54.998Z,57.90
2019-02-28T19:56:25.192Z,57.10
2019-02-28T19:58:55.270Z,58.83
2019-02-28T20:01:25.382Z,56.27
2019-02-28T20:03:55.578Z,57.20
2019-02-28T20:06:25.765Z,62.33
2019-02-28T20:08:55.817Z,60.70
2019-02-28T20:11:25.858Z,60.27
2019-02-28T20:13:55.804Z,59.87
2019-02-28T20:16:25.868Z,53.47
2019-02-28T20:18:56.245Z,57.23
2019-02-28T20:21:26.455Z,59.70
2019-02-28T20:23:56.535Z,58.90
2019-02-28T20:26:26.521Z,54.80
2019-02-28T20:28:56.634Z,57.93
2019-02-28T20:31:26.980Z,57.00
2019-02-28T20:33:56.960Z,56.53
2019-02-28T20:36:27.333Z,59.23
2019-02-28T20:38:57.235Z,56.37
2019-02-28T20:41:27.265Z,58.00
2019-02-28T20:43:57.549Z,60.97
2019-02-28T20:46:27.506Z,49.53
2019-02-28T20:48:57.530Z,53.40
2019-02-28T20:51:29.053Z,52.33
2019-02-28T20:53:58.983Z,53.97
2019-02-28T20:56:29.217Z,52.90
2019-02-28T20:58:59.199Z,53.30
2019-02-28T21:01:29.156Z,53.07
2019-02-28T21:03:59.083Z,52.70
2019-02-28T21:06:29.054Z,53.07
2019-02-28T21:08:59.061Z,51.90
2019-02-28T21:11:29.050Z,53.23
2019-02-28T21:14:01.924Z,49.23
2019-02-28T21:16:33.902Z,49.80
2019-02-28T21:19:05.244Z,50.27
2019-02-28T21:21:36.683Z,46.47
2019-02-28T21:24:07.978Z,49.07
2019-02-28T21:26:37.973Z,46.60
2019-02-28T21:29:09.623Z,44.30
2019-02-28T21:31:40.525Z,46.03
2019-02-28T21:34:11.318Z,42.83
2019-02-28T21:36:42.083Z,44.40
2019-02-28T21:39:13.098Z,46.60
2019-02-28T21:41:44.058Z,41.17
2019-02-28T21:44:15.994Z,43.63
2019-02-28T21:46:46.157Z,40.67
2019-02-28T21:49:18.872Z,42.17
2019-02-28T21:51:50.148Z,41.80
2019-02-28T21:54:20.426Z,43.27
2019-02-28T21:56:50.671Z,40.10
2019-02-28T21:59:21.023Z,41.90
2019-02-28T22:01:52.189Z,42.53
2019-02-28T22:04:22.131Z,40.90
2019-02-28T22:06:53.253Z,39.53
2019-02-28T22:09:24.308Z,40.67
2019-02-28T22:11:55.699Z,37.97
2019-02-28T22:14:26.971Z,40.57
2019-02-28T22:16:58.309Z,37.73
2019-02-28T22:19:30.019Z,41.17
2019-02-28T22:22:01.522Z,39.87
2019-02-28T22:24:31.494Z,35.53
2019-02-28T22:27:01.605Z,37.23
2019-02-28T22:29:31.770Z,36.90
2019-02-28T22:32:24.408Z,40.97
2019-02-28T22:35:08.060Z,39.00
2019-02-28T22:37:39.280Z,39.57
2019-02-28T22:40:10.536Z,34.93
2019-02-28T22:42:40.809Z,33.93
2019-02-28T22:45:12.440Z,34.77
2019-02-28T22:47:43.499Z,35.73
2019-02-28T22:50:13.907Z,36.77
2019-02-28T22:52:45.515Z,37.20
2019-02-28T22:55:17.160Z,34.73
2019-02-28T22:57:48.679Z,35.40
2019-02-28T23:00:47.093Z,36.37
2019-02-28T23:03:17.473Z,34.60
2019-02-28T23:05:48.584Z,35.77
2019-02-28T23:08:21.148Z,35.57
2019-02-28T23:10:51.194Z,33.90
2019-02-28T23:13:21.157Z,37.90
2019-02-28T23:15:51.216Z,32.07
2019-02-28T23:18:21.506Z,36.40
2019-02-28T23:20:51.407Z,34.33
2019-02-28T23:23:22.163Z,39.07
2019-02-28T23:25:52.270Z,39.43
2019-02-28T23:28:51.061Z,36.83
2019-02-28T23:32:15.573Z,38.60
2019-02-28T23:34:52.711Z,38.87
2019-02-28T23:37:22.714Z,39.40
2019-02-28T23:39:52.895Z,54.67
2019-02-28T23:42:22.848Z,41.27
2019-02-28T23:44:52.992Z,38.47
2019-02-28T23:47:22.906Z,35.23
2019-02-28T23:49:52.828Z,35.27
2019-02-28T23:52:22.863Z,38.13
2019-02-28T23:54:53.196Z,33.43
2019-02-28T23:57:23.165Z,36.43
2019-02-28T23:59:53.080Z,37.60
